createdAt,value
2019-01-12T00:02:01.024Z,97692.57
2019-01-12T00:04:32.598Z,97693.05
2019-01-12T00:07:03.852Z,97728.85
2019-01-12T00:09:35.404Z,97687.89
2019-01-12T00:12:06.729Z,97680.90
2019-01-12T00:14:37.795Z,97673.58
2019-01-12T00:17:08.906Z,97686.98
2019-01-12T00:19:40.203Z,97681.66
2019-01-12T00:22:11.312Z,97682.79
2019-01-12T00:24:43.720Z,97688.56
2019-01-12T00:27:14.927Z,97693.38
2019-01-12T00:29:45.988Z,97679.92
2019-01-12T00:32:17.523Z,97688.52
2019-01-12T00:34:48.519Z,97676.88
2019-01-12T00:37:19.718Z,97684.98
2019-01-12T00:39:51.254Z,97726.25
2019-01-12T00:42:22.303Z,97700.00
2019-01-12T00:44:53.513Z,97690.84
2019-01-12T00:47:24.539Z,97668.95
2019-01-12T00:49:56.443Z,97677.55
2019-01-12T00:52:28.505Z,97685.98
2019-01-12T00:54:59.855Z,97674.48
2019-01-12T00:57:31.920Z,97690.05
2019-01-12T01:00:03.296Z,97671.09
2019-01-12T01:02:34.799Z,97678.56
2019-01-12T01:05:07.036Z,97668.91
2019-01-12T01:07:38.699Z,97699.44
2019-01-12T01:10:14.184Z,97699.08
2019-01-12T01:12:45.837Z,97691.45
2019-01-12T01:15:18.243Z,97688.59
2019-01-12T01:17:49.552Z,97705.16
2019-01-12T01:20:20.866Z,97697.89
2019-01-12T01:22:52.398Z,97688.93
2019-01-12T01:25:23.769Z,97699.35
2019-01-12T01:27:55.065Z,97671.67
2019-01-12T01:30:26.418Z,97689.23
2019-01-12T01:32:59.315Z,97691.03
2019-01-12T01:35:33.001Z,97673.97
2019-01-12T01:38:04.426Z,97687.38
2019-01-12T01:40:35.705Z,97691.16
2019-01-12T01:43:06.866Z,97699.80
2019-01-12T01:45:38.092Z,97712.23
2019-01-12T01:48:09.504Z,97687.84
2019-01-12T01:50:41.792Z,97694.28
2019-01-12T01:53:13.331Z,97704.91
2019-01-12T01:55:44.494Z,97695.08
2019-01-12T01:58:15.750Z,97698.04
2019-01-12T02:00:47.394Z,97695.88
2019-01-12T02:03:18.968Z,97682.73
2019-01-12T02:05:50.088Z,97685.09
2019-01-12T02:08:22.915Z,97707.66
2019-01-12T02:10:54.373Z,97690.41
2019-01-12T02:13:26.114Z,97703.81
2019-01-12T02:15:57.220Z,97702.48
2019-01-12T02:18:28.448Z,97708.30
2019-01-12T02:20:59.805Z,97694.69
2019-01-12T02:23:31.028Z,97694.52
2019-01-12T02:26:02.691Z,97688.22
2019-01-12T02:28:34.171Z,97696.18
2019-01-12T02:31:06.242Z,97717.43
2019-01-12T02:33:37.692Z,97711.78
2019-01-12T02:36:09.054Z,97708.63
2019-01-12T02:38:40.302Z,97706.27
2019-01-12T02:41:11.400Z,97704.64
2019-01-12T02:43:42.898Z,97703.81
2019-01-12T02:46:14.353Z,97705.31
2019-01-12T02:48:46.724Z,97701.80
2019-01-12T02:51:17.972Z,97696.11
2019-01-12T02:53:50.614Z,97697.58
2019-01-12T02:56:22.242Z,97700.44
2019-01-12T02:58:53.330Z,97712.39
2019-01-12T03:01:24.874Z,97703.59
2019-01-12T03:03:56.030Z,97689.80
2019-01-12T03:06:28.491Z,97694.92
2019-01-12T03:09:01.040Z,97705.38
2019-01-12T03:11:34.139Z,97694.55
2019-01-12T03:14:06.343Z,97691.23
2019-01-12T03:16:38.107Z,97693.19
2019-01-12T03:19:09.418Z,97696.15
2019-01-12T03:21:40.846Z,97707.30
2019-01-12T03:24:12.158Z,97699.63
2019-01-12T03:26:43.835Z,97690.17
2019-01-12T03:29:15.405Z,97694.45
2019-01-12T03:31:46.851Z,97712.69
2019-01-12T03:34:18.518Z,97715.51
2019-01-12T03:36:50.450Z,97688.61
2019-01-12T03:39:22.121Z,97702.02
2019-01-12T03:41:53.368Z,97679.11
2019-01-12T03:44:24.755Z,97700.00
2019-01-12T03:46:57.087Z,97705.77
2019-01-12T03:49:28.507Z,97706.11
2019-01-12T03:52:00.187Z,97691.48
2019-01-12T03:54:32.396Z,97704.58
2019-01-12T03:57:03.538Z,97720.16
2019-01-12T03:59:34.610Z,97698.19
2019-01-12T04:02:06.089Z,97694.04
2019-01-12T04:04:38.007Z,97698.85
2019-01-12T04:07:09.437Z,97716.77
2019-01-12T04:09:40.695Z,97714.93
2019-01-12T04:12:12.052Z,97703.60
2019-01-12T04:14:43.307Z,97728.35
2019-01-12T04:17:16.583Z,97710.70
2019-01-12T04:19:47.770Z,97709.17
2019-01-12T04:22:18.895Z,97728.95
2019-01-12T04:24:50.148Z,97723.26
2019-01-12T04:27:21.383Z,97721.43
2019-01-12T04:29:53.901Z,97710.47
2019-01-12T04:32:26.606Z,97737.67
2019-01-12T04:34:59.500Z,97737.18
2019-01-12T04:37:30.990Z,97737.18
2019-01-12T04:40:02.301Z,97738.64
2019-01-12T04:42:33.587Z,97745.78
2019-01-12T04:45:06.143Z,97755.88
2019-01-12T04:47:37.454Z,97756.88
2019-01-12T04:50:11.080Z,97747.70
2019-01-12T04:52:42.431Z,97749.36
2019-01-12T04:55:14.499Z,97760.00
2019-01-12T04:57:45.838Z,97759.13
2019-01-12T05:00:18.785Z,97790.20
2019-01-12T05:02:50.270Z,97784.39
2019-01-12T05:05:21.450Z,97765.28
2019-01-12T05:07:52.756Z,97781.80
2019-01-12T05:10:23.900Z,97781.50
2019-01-12T05:12:55.474Z,97783.82
2019-01-12T05:15:27.036Z,97785.95
2019-01-12T05:17:58.168Z,97785.95
2019-01-12T05:20:29.665Z,97797.52
2019-01-12T05:23:01.149Z,97794.72
2019-01-12T05:25:33.736Z,97793.72
2019-01-12T05:28:06.104Z,97812.54
2019-01-12T05:30:37.270Z,97804.16
2019-01-12T05:33:08.313Z,97796.84
2019-01-12T05:35:39.412Z,97805.13
2019-01-12T05:38:10.608Z,97803.12
2019-01-12T05:40:41.848Z,97805.78
2019-01-12T05:43:12.957Z,97817.55
2019-01-12T05:45:44.235Z,97812.94
2019-01-12T05:48:15.445Z,97809.94
2019-01-12T05:50:46.758Z,97815.26
2019-01-12T05:53:18.052Z,97824.11
2019-01-12T05:55:56.626Z,97817.98
2019-01-12T05:58:23.777Z,97842.29
2019-01-12T06:00:55.302Z,97843.16
2019-01-12T06:03:28.033Z,97836.31
2019-01-12T06:06:00.899Z,97836.18
2019-01-12T06:08:32.336Z,97832.69
2019-01-12T06:11:03.475Z,97845.62
2019-01-12T06:13:34.675Z,97848.47
2019-01-12T06:16:06.245Z,97849.94
2019-01-12T06:18:37.569Z,97846.95
2019-01-12T06:21:08.708Z,97848.44
2019-01-12T06:23:40.028Z,97853.77
2019-01-12T06:26:11.493Z,97856.09
2019-01-12T06:28:44.924Z,97863.57
2019-01-12T06:31:17.192Z,97862.64
2019-01-12T06:33:48.270Z,97860.54
2019-01-12T06:36:20.907Z,97874.50
2019-01-12T06:38:53.490Z,97881.84
2019-01-12T06:41:24.900Z,97871.20
2019-01-12T06:43:56.237Z,97877.91
2019-01-12T06:46:27.763Z,97890.60
2019-01-12T06:48:59.163Z,97876.64
2019-01-12T06:51:30.464Z,97882.30
2019-01-12T06:54:01.818Z,97892.95
2019-01-12T06:56:33.700Z,97905.94
2019-01-12T06:59:05.800Z,97902.95
2019-01-12T07:01:37.094Z,97901.26
2019-01-12T07:04:08.364Z,97903.28
2019-01-12T07:06:39.713Z,97908.60
2019-01-12T07:09:10.829Z,97906.36
2019-01-12T07:11:42.216Z,97916.66
2019-01-12T07:14:14.175Z,97914.66
2019-01-12T07:16:45.612Z,97936.23
2019-01-12T07:19:16.839Z,97915.80
2019-01-12T07:21:47.951Z,97932.09
2019-01-12T07:24:19.070Z,97925.84
2019-01-12T07:26:50.385Z,97936.98
2019-01-12T07:29:22.421Z,97935.82
2019-01-12T07:31:56.280Z,97937.29
2019-01-12T07:34:27.252Z,97940.78
2019-01-12T07:36:59.599Z,97942.61
2019-01-12T07:39:30.708Z,97948.00
2019-01-12T07:42:03.110Z,97953.19
2019-01-12T07:44:36.823Z,97943.22
2019-01-12T07:47:09.019Z,97950.66
2019-01-12T07:49:40.983Z,97953.99
2019-01-12T07:52:12.517Z,97952.67
2019-01-12T07:54:44.552Z,97948.63
2019-01-12T07:57:16.052Z,97948.77
2019-01-12T07:59:47.448Z,97946.07
2019-01-12T08:02:18.514Z,97954.28
2019-01-12T08:04:50.243Z,97958.08
2019-01-12T08:07:21.391Z,97952.73
2019-01-12T08:09:52.688Z,97954.52
2019-01-12T08:12:23.974Z,97956.28
2019-01-12T08:14:55.294Z,97959.14
2019-01-12T08:17:28.182Z,97947.17
2019-01-12T08:19:59.392Z,97948.83
2019-01-12T08:22:30.741Z,97957.02
2019-01-12T08:25:01.982Z,97956.88
2019-01-12T08:27:34.833Z,97956.50
2019-01-12T08:30:10.093Z,97951.67
2019-01-12T08:32:41.615Z,97941.45
2019-01-12T08:35:14.594Z,97952.23
2019-01-12T08:37:45.700Z,97949.08
2019-01-12T08:40:17.399Z,97939.64
2019-01-12T08:42:48.484Z,97949.53
2019-01-12T08:45:20.047Z,97952.83
2019-01-12T08:47:51.707Z,97946.42
2019-01-12T08:50:22.735Z,97953.21
2019-01-12T08:52:54.275Z,97947.38
2019-01-12T08:55:25.955Z,97944.34
2019-01-12T08:57:57.462Z,97950.58
2019-01-12T09:00:28.848Z,97952.67
2019-01-12T09:03:00.114Z,97949.42
2019-01-12T09:05:31.385Z,97957.16
2019-01-12T09:08:02.607Z,97949.95
2019-01-12T09:10:33.855Z,97950.00
2019-01-12T09:13:05.832Z,97947.08
2019-01-12T09:15:37.136Z,97940.12
2019-01-12T09:18:08.401Z,97938.73
2019-01-12T09:20:40.149Z,97942.73
2019-01-12T09:23:11.345Z,97939.53
2019-01-12T09:25:42.431Z,97934.91
2019-01-12T09:28:13.622Z,97944.23
2019-01-12T09:30:48.494Z,97922.38
2019-01-12T09:33:17.561Z,97935.04
2019-01-12T09:35:48.818Z,97934.21
2019-01-12T09:38:20.208Z,97926.95
2019-01-12T09:40:51.436Z,97927.66
2019-01-12T09:43:25.045Z,97918.69
2019-01-12T09:45:56.459Z,97907.75
2019-01-12T09:48:29.393Z,97922.75
2019-01-12T09:51:00.944Z,97909.36
2019-01-12T09:53:32.395Z,97914.78
2019-01-12T09:56:03.673Z,97917.83
2019-01-12T09:58:35.494Z,97907.22
2019-01-12T10:01:06.738Z,97901.88
2019-01-12T10:03:37.996Z,97914.63
2019-01-12T10:06:09.104Z,97901.72
2019-01-12T10:08:40.437Z,97899.33
2019-01-12T10:11:11.661Z,97896.44
2019-01-12T10:13:43.026Z,97900.55
2019-01-12T10:16:14.215Z,97894.33
2019-01-12T10:18:45.396Z,97898.61
2019-01-12T10:21:17.740Z,97895.16
2019-01-12T10:23:49.101Z,97900.44
2019-01-12T10:26:20.124Z,97894.97
2019-01-12T10:28:51.341Z,97889.81
2019-01-12T10:31:22.352Z,97887.58
2019-01-12T10:33:54.026Z,97895.23
2019-01-12T10:36:25.183Z,97877.98
2019-01-12T10:38:56.880Z,97891.55
2019-01-12T10:41:28.999Z,97907.11
2019-01-12T10:44:00.177Z,97888.55
2019-01-12T10:46:31.394Z,97890.62
2019-01-12T10:49:02.596Z,97886.17
2019-01-12T10:51:33.957Z,97879.61
2019-01-12T10:54:06.209Z,97888.88
2019-01-12T10:56:37.557Z,97874.63
2019-01-12T10:59:08.710Z,97878.62
2019-01-12T11:01:40.120Z,97877.84
2019-01-12T11:04:12.224Z,97866.14
2019-01-12T11:06:43.463Z,97880.35
2019-01-12T11:09:16.381Z,97883.39
2019-01-12T11:11:48.234Z,97870.33
2019-01-12T11:14:19.821Z,97881.13
2019-01-12T11:16:51.034Z,97863.03
2019-01-12T11:19:24.201Z,97874.26
2019-01-12T11:21:55.188Z,97869.23
2019-01-12T11:24:26.484Z,97865.63
2019-01-12T11:26:57.851Z,97869.26
2019-01-12T11:29:29.285Z,97878.70
2019-01-12T11:32:00.532Z,97866.99
2019-01-12T11:34:31.866Z,97865.55
2019-01-12T11:37:03.139Z,97865.12
2019-01-12T11:39:35.266Z,97868.80
2019-01-12T11:42:06.358Z,97857.59
2019-01-12T11:44:37.601Z,97855.02
2019-01-12T11:47:08.621Z,97851.34
2019-01-12T11:49:39.959Z,97856.57
2019-01-12T11:52:11.417Z,97849.63
2019-01-12T11:54:43.596Z,97845.59
2019-01-12T11:57:19.058Z,97844.78
2019-01-12T11:59:47.944Z,97837.70
2019-01-12T12:02:19.411Z,97849.33
2019-01-12T12:04:51.162Z,97835.27
2019-01-12T12:07:22.529Z,97835.44
2019-01-12T12:09:53.786Z,97839.33
2019-01-12T12:12:24.855Z,97832.38
2019-01-12T12:14:56.115Z,97821.28
2019-01-12T12:17:27.256Z,97822.84
2019-01-12T12:19:58.398Z,97826.75
2019-01-12T12:22:30.240Z,97825.61
2019-01-12T12:25:02.184Z,97821.72
2019-01-12T12:27:35.807Z,97822.94
2019-01-12T12:30:10.647Z,97821.41
2019-01-12T12:32:42.067Z,97818.73
2019-01-12T12:35:14.750Z,97819.13
2019-01-12T12:37:47.095Z,97814.83
2019-01-12T12:40:19.384Z,97817.20
2019-01-12T12:42:50.726Z,97809.86
2019-01-12T12:45:25.007Z,97809.25
2019-01-12T12:47:56.292Z,97811.60
2019-01-12T12:50:27.476Z,97814.68
2019-01-12T12:52:58.592Z,97808.60
2019-01-12T12:55:29.857Z,97796.58
2019-01-12T12:58:01.336Z,97791.36
2019-01-12T13:00:33.800Z,97791.47
2019-01-12T13:03:06.105Z,97788.81
2019-01-12T13:05:37.723Z,97792.61
2019-01-12T13:08:08.780Z,97794.88
2019-01-12T13:10:40.119Z,97802.56
2019-01-12T13:13:11.663Z,97792.89
2019-01-12T13:15:43.086Z,97790.13
2019-01-12T13:18:14.382Z,97793.92
2019-01-12T13:20:45.664Z,97793.23
2019-01-12T13:23:17.003Z,97789.41
2019-01-12T13:25:48.684Z,97786.75
2019-01-12T13:28:19.771Z,97789.51
2019-01-12T13:30:51.819Z,97786.12
2019-01-12T13:33:23.104Z,97791.25
2019-01-12T13:35:54.426Z,97788.26
2019-01-12T13:38:25.993Z,97783.54
2019-01-12T13:40:57.476Z,97783.54
2019-01-12T13:43:29.419Z,97782.30
2019-01-12T13:46:00.829Z,97774.38
2019-01-12T13:48:32.527Z,97784.02
2019-01-12T13:51:04.767Z,97779.19
2019-01-12T13:53:35.815Z,97777.55
2019-01-12T13:56:07.469Z,97773.02
2019-01-12T13:58:38.598Z,97769.20
2019-01-12T14:01:09.831Z,97784.61
2019-01-12T14:03:41.218Z,97768.19
2019-01-12T14:06:12.565Z,97767.78
2019-01-12T14:08:43.905Z,97764.06
2019-01-12T14:11:15.297Z,97766.53
2019-01-12T14:13:46.525Z,97756.06
2019-01-12T14:16:17.710Z,97755.13
2019-01-12T14:18:49.240Z,97759.16
2019-01-12T14:21:20.796Z,97748.86
2019-01-12T14:23:52.051Z,97747.65
2019-01-12T14:26:23.747Z,97739.80
2019-01-12T14:28:54.943Z,97742.38
2019-01-12T14:31:26.255Z,97741.05
2019-01-12T14:33:57.643Z,97740.61
2019-01-12T14:36:30.747Z,97734.05
2019-01-12T14:39:01.898Z,97733.62
2019-01-12T14:41:34.864Z,97729.73
2019-01-12T14:44:05.972Z,97734.85
2019-01-12T14:46:37.827Z,97722.33
2019-01-12T14:49:09.506Z,97718.94
2019-01-12T14:51:40.961Z,97702.48
2019-01-12T14:54:12.483Z,97709.70
2019-01-12T14:56:43.777Z,97708.98
2019-01-12T14:59:14.954Z,97712.98
2019-01-12T15:01:47.976Z,97717.90
2019-01-12T15:04:19.603Z,97713.89
2019-01-12T15:06:50.975Z,97722.84
2019-01-12T15:09:22.251Z,97706.20
2019-01-12T15:11:53.693Z,97707.83
2019-01-12T15:14:24.973Z,97716.56
2019-01-12T15:16:56.328Z,97704.77
2019-01-12T15:19:28.274Z,97711.62
2019-01-12T15:21:59.848Z,97707.84
2019-01-12T15:24:31.033Z,97705.36
2019-01-12T15:27:02.341Z,97706.80
2019-01-12T15:29:33.857Z,97710.19
2019-01-12T15:32:06.207Z,97704.52
2019-01-12T15:34:37.546Z,97698.68
2019-01-12T15:37:08.650Z,97703.41
2019-01-12T15:39:39.712Z,97709.55
2019-01-12T15:42:12.643Z,97703.70
2019-01-12T15:44:44.137Z,97701.55
2019-01-12T15:47:15.722Z,97722.06
2019-01-12T15:49:46.933Z,97702.98
2019-01-12T15:52:18.206Z,97697.97
2019-01-12T15:54:50.967Z,97700.20
2019-01-12T15:57:23.743Z,97696.82
2019-01-12T15:59:55.190Z,97699.06
2019-01-12T16:02:26.515Z,97697.51
2019-01-12T16:04:58.042Z,97695.78
2019-01-12T16:07:29.773Z,97684.78
2019-01-12T16:10:00.869Z,97669.28
2019-01-12T16:12:32.001Z,97672.16
2019-01-12T16:15:03.093Z,97671.66
2019-01-12T16:17:35.359Z,97670.00
2019-01-12T16:20:11.011Z,97674.94
2019-01-12T16:22:42.536Z,97676.98
2019-01-12T16:25:14.551Z,97682.53
2019-01-12T16:27:45.611Z,97677.09
2019-01-12T16:30:19.123Z,97681.42
2019-01-12T16:32:51.077Z,97669.49
2019-01-12T16:35:22.446Z,97675.98
2019-01-12T16:37:53.968Z,97663.56
2019-01-12T16:40:26.515Z,97667.65
2019-01-12T16:42:58.545Z,97645.69
2019-01-12T16:45:29.817Z,97647.95
2019-01-12T16:48:00.889Z,97652.99
2019-01-12T16:50:33.848Z,97655.77
2019-01-12T16:53:05.909Z,97655.05
2019-01-12T16:55:37.270Z,97647.66
2019-01-12T16:58:08.426Z,97651.36
2019-01-12T17:00:39.914Z,97648.88
2019-01-12T17:03:11.155Z,97654.53
2019-01-12T17:05:42.278Z,97652.08
2019-01-12T17:08:14.875Z,97648.47
2019-01-12T17:10:46.135Z,97646.63
2019-01-12T17:13:17.361Z,97652.38
2019-01-12T17:15:48.754Z,97643.03
2019-01-12T17:18:20.230Z,97637.59
2019-01-12T17:20:52.983Z,97646.22
2019-01-12T17:23:24.208Z,97648.38
2019-01-12T17:25:55.841Z,97642.62
2019-01-12T17:28:27.081Z,97633.88
2019-01-12T17:30:58.343Z,97649.19
2019-01-12T17:33:29.956Z,97625.76
2019-01-12T17:36:01.156Z,97620.13
2019-01-12T17:38:33.220Z,97619.41
2019-01-12T17:41:04.515Z,97630.91
2019-01-12T17:43:35.756Z,97624.13
2019-01-12T17:46:06.907Z,97620.23
2019-01-12T17:48:38.035Z,97615.73
2019-01-12T17:51:11.543Z,97610.06
2019-01-12T17:53:42.827Z,97607.82
2019-01-12T17:56:14.541Z,97605.26
2019-01-12T17:58:45.824Z,97621.55
2019-01-12T18:01:16.999Z,97599.52
2019-01-12T18:03:48.605Z,97598.56
2019-01-12T18:06:19.807Z,97593.77
2019-01-12T18:08:51.474Z,97589.34
2019-01-12T18:11:22.880Z,97594.58
2019-01-12T18:13:55.433Z,97585.34
2019-01-12T18:16:26.752Z,97595.51
2019-01-12T18:18:57.900Z,97583.08
2019-01-12T18:21:29.038Z,97581.84
2019-01-12T18:24:00.161Z,97586.77
2019-01-12T18:26:31.427Z,97578.05
2019-01-12T18:29:02.795Z,97569.95
2019-01-12T18:31:33.814Z,97575.06
2019-01-12T18:34:04.997Z,97572.39
2019-01-12T18:36:37.091Z,97567.98
2019-01-12T18:39:08.778Z,97576.73
2019-01-12T18:41:41.290Z,97562.87
2019-01-12T18:44:12.389Z,97557.41
2019-01-12T18:46:43.757Z,97556.68
2019-01-12T18:49:14.789Z,97555.89
2019-01-12T18:51:46.688Z,97545.20
2019-01-12T18:54:17.800Z,97541.48
2019-01-12T18:56:49.190Z,97530.52
2019-01-12T18:59:20.434Z,97531.45
2019-01-12T19:01:51.414Z,97529.56
2019-01-12T19:04:22.507Z,97524.23
2019-01-12T19:06:54.823Z,97523.02
2019-01-12T19:09:26.347Z,97517.17
2019-01-12T19:11:57.648Z,97516.13
2019-01-12T19:14:28.943Z,97502.88
2019-01-12T19:17:00.025Z,97506.27
2019-01-12T19:19:31.703Z,97501.34
2019-01-12T19:22:02.851Z,97491.78
2019-01-12T19:24:34.234Z,97485.52
2019-01-12T19:27:06.025Z,97481.41
2019-01-12T19:29:37.223Z,97471.33
2019-01-12T19:32:08.530Z,97478.61
2019-01-12T19:34:39.918Z,97465.75
2019-01-12T19:37:11.822Z,97467.22
2019-01-12T19:39:43.088Z,97465.16
2019-01-12T19:42:15.599Z,97459.41
2019-01-12T19:44:47.128Z,97451.90
2019-01-12T19:47:18.559Z,97452.63
2019-01-12T19:49:49.634Z,97452.12
2019-01-12T19:52:20.602Z,97446.55
2019-01-12T19:54:51.711Z,97448.31
2019-01-12T19:57:23.951Z,97448.41
2019-01-12T19:59:55.147Z,97442.78
2019-01-12T20:02:26.342Z,97445.73
2019-01-12T20:04:57.602Z,97439.78
2019-01-12T20:07:29.247Z,97436.10
2019-01-12T20:10:00.477Z,97429.20
2019-01-12T20:12:31.866Z,97425.09
2019-01-12T20:15:02.896Z,97425.41
2019-01-12T20:17:33.986Z,97412.05
2019-01-12T20:20:07.063Z,97413.58
2019-01-12T20:22:38.107Z,97405.47
2019-01-12T20:25:13.034Z,97402.56
2019-01-12T20:27:44.289Z,97411.81
2019-01-12T20:30:24.586Z,97403.80
2019-01-12T20:33:10.695Z,97394.30
2019-01-12T20:36:08.793Z,97383.11
2019-01-12T20:39:17.578Z,97382.69
2019-01-12T20:42:20.947Z,97378.08
2019-01-12T20:45:27.773Z,97380.61
2019-01-12T20:48:40.650Z,97380.61
2019-01-12T20:51:55.199Z,97372.72
2019-01-12T20:55:05.680Z,97365.50
2019-01-12T20:57:47.607Z,97360.30
2019-01-12T21:01:07.908Z,97358.30
2019-01-12T21:04:02.576Z,97353.70
2019-01-12T21:06:59.426Z,97347.84
2019-01-12T21:10:14.173Z,97341.84
2019-01-12T21:13:28.922Z,97343.27
2019-01-12T21:16:07.965Z,97348.78
2019-01-12T21:18:39.111Z,97341.50
2019-01-12T21:21:10.096Z,97337.81
2019-01-12T21:23:41.498Z,97343.55
2019-01-12T21:26:12.763Z,97334.88
2019-01-12T21:28:43.864Z,97330.44
2019-01-12T21:31:14.926Z,97329.58
2019-01-12T21:33:46.089Z,97322.30
2019-01-12T21:36:17.573Z,97317.31
2019-01-12T21:38:48.747Z,97308.86
2019-01-12T21:41:19.980Z,97306.81
2019-01-12T21:43:51.164Z,97303.79
2019-01-12T21:46:22.258Z,97299.91
2019-01-12T21:48:53.571Z,97296.91
2019-01-12T21:51:24.790Z,97290.11
2019-01-12T21:53:56.056Z,97296.95
2019-01-12T21:56:29.009Z,97292.78
2019-01-12T21:59:00.206Z,97286.30
2019-01-12T22:01:36.190Z,97289.17
2019-01-12T22:04:06.088Z,97284.45
2019-01-12T22:06:38.132Z,97286.69
2019-01-12T22:09:10.930Z,97290.16
2019-01-12T22:11:42.337Z,97279.42
2019-01-12T22:14:13.462Z,97278.39
2019-01-12T22:16:44.687Z,97280.63
2019-01-12T22:19:15.953Z,97269.39
2019-01-12T22:21:46.945Z,97278.08
2019-01-12T22:24:18.321Z,97275.84
2019-01-12T22:26:49.665Z,97265.16
2019-01-12T22:29:20.740Z,97265.38
2019-01-12T22:31:52.737Z,97265.62
2019-01-12T22:34:23.702Z,97266.00
2019-01-12T22:36:55.063Z,97264.83
2019-01-12T22:39:26.198Z,97259.55
2019-01-12T22:41:57.410Z,97260.06
2019-01-12T22:44:28.778Z,97252.36
2019-01-12T22:46:59.816Z,97251.09
2019-01-12T22:49:30.897Z,97247.31
2019-01-12T22:58:11.328Z,97236.08
2019-01-12T23:01:02.766Z,97228.95
2019-01-12T23:03:35.130Z,97223.55
2019-01-12T23:06:06.401Z,97230.54
2019-01-12T23:08:37.737Z,97219.02
2019-01-12T23:11:08.880Z,97213.75
2019-01-12T23:13:40.068Z,97211.75
2019-01-12T23:16:11.025Z,97212.39
2019-01-12T23:18:42.643Z,97223.14
2019-01-12T23:21:14.227Z,97209.42
2019-01-12T23:23:45.518Z,97209.17
2019-01-12T23:26:16.678Z,97215.78
2019-01-12T23:28:47.800Z,97194.81
2019-01-12T23:31:20.004Z,97205.34
2019-01-12T23:33:51.266Z,97210.53
2019-01-12T23:36:23.578Z,97199.89
2019-01-12T23:38:55.154Z,97199.07
2019-01-12T23:41:26.461Z,97183.04
2019-01-12T23:43:58.306Z,97196.83
2019-01-12T23:46:30.918Z,97185.95
2019-01-12T23:49:02.361Z,97198.41
2019-01-12T23:51:33.627Z,97174.05
2019-01-12T23:54:04.756Z,97184.30
2019-01-12T23:56:35.826Z,97187.80
2019-01-12T23:59:07.014Z,97180.42
